createdAt,value
2023-03-15T00:02:35.454Z,4.97
2023-03-15T00:06:02.050Z,4.88
2023-03-15T00:09:28.514Z,4.36
2023-03-15T00:12:42.686Z,4.63
2023-03-15T00:16:00.106Z,4.73
2023-03-15T00:19:08.716Z,4.72
2023-03-15T00:22:27.297Z,4.95
2023-03-15T00:25:50.496Z,4.73
2023-03-15T00:28:58.893Z,4.60
2023-03-15T00:32:07.031Z,4.93
2023-03-15T00:35:18.800Z,4.84
2023-03-15T00:38:27.048Z,4.26
2023-03-15T00:41:41.779Z,5.09
2023-03-15T00:44:56.230Z,4.89
2023-03-15T00:48:19.457Z,4.55
2023-03-15T00:51:45.587Z,4.24
2023-03-15T00:54:54.523Z,4.26
2023-03-15T00:58:03.185Z,4.37
2023-03-15T01:01:19.674Z,4.36
2023-03-15T01:04:36.446Z,4.31
2023-03-15T01:07:45.694Z,4.22
2023-03-15T01:10:54.511Z,3.90
2023-03-15T01:14:20.036Z,3.91
2023-03-15T01:17:28.915Z,3.80
2023-03-15T01:20:35.032Z,3.72
2023-03-15T01:23:42.823Z,3.57
2023-03-15T01:26:55.707Z,4.16
2023-03-15T01:30:21.388Z,4.28
2023-03-15T01:33:40.419Z,4.03
2023-03-15T01:36:53.979Z,4.47
2023-03-15T01:40:06.534Z,4.28
2023-03-15T01:43:18.163Z,4.43
2023-03-15T01:46:43.878Z,4.62
2023-03-15T01:49:55.634Z,4.47
2023-03-15T01:53:03.667Z,4.36
2023-03-15T01:56:20.752Z,3.72
2023-03-15T01:59:41.764Z,3.93
2023-03-15T02:02:50.836Z,3.89
2023-03-15T02:06:18.084Z,3.76
2023-03-15T02:09:32.218Z,4.20
2023-03-15T02:12:42.888Z,4.77
2023-03-15T02:15:48.454Z,4.58
2023-03-15T02:19:00.152Z,4.79
2023-03-15T02:22:24.156Z,4.79
2023-03-15T02:25:46.672Z,4.99
2023-03-15T02:29:04.346Z,4.69
2023-03-15T02:32:10.562Z,4.81
2023-03-15T02:35:36.723Z,4.95
2023-03-15T02:39:03.585Z,4.66
2023-03-15T02:42:14.938Z,4.66
2023-03-15T02:45:33.037Z,4.83
2023-03-15T02:48:59.504Z,4.57
2023-03-15T02:52:18.396Z,4.79
2023-03-15T02:55:42.979Z,4.26
2023-03-15T02:58:57.629Z,4.48
2023-03-15T03:02:22.378Z,4.52
2023-03-15T03:05:30.383Z,4.26
2023-03-15T03:08:51.485Z,4.54
2023-03-15T03:12:10.323Z,4.12
2023-03-15T03:15:28.690Z,4.24
2023-03-15T03:18:53.345Z,4.48
2023-03-15T03:22:13.260Z,4.82
2023-03-15T03:25:33.028Z,4.92
2023-03-15T03:28:51.346Z,5.16
2023-03-15T03:32:00.949Z,5.45
2023-03-15T03:35:26.765Z,5.58
2023-03-15T03:38:54.084Z,5.75
2023-03-15T03:42:12.623Z,5.22
2023-03-15T03:45:38.558Z,5.50
2023-03-15T03:48:57.368Z,5.73
2023-03-15T03:52:23.031Z,5.78
2023-03-15T03:55:49.204Z,5.84
2023-03-15T03:59:14.814Z,5.92
2023-03-15T04:02:42.755Z,5.62
2023-03-15T04:06:05.752Z,5.70
2023-03-15T04:09:31.653Z,5.92
2023-03-15T04:12:40.269Z,5.89
2023-03-15T04:15:57.823Z,5.78
2023-03-15T04:19:12.888Z,5.97
2023-03-15T04:22:38.583Z,5.92
2023-03-15T04:26:06.996Z,5.87
2023-03-15T04:29:32.940Z,6.08
2023-03-15T04:33:03.484Z,6.13
2023-03-15T04:36:31.907Z,5.37
2023-03-15T04:40:07.204Z,5.32
2023-03-15T04:43:38.509Z,4.52
2023-03-15T04:47:07.059Z,4.68
2023-03-15T04:50:32.813Z,4.13
2023-03-15T04:53:58.594Z,4.03
2023-03-15T04:57:26.870Z,4.44
2023-03-15T05:00:41.617Z,3.93
2023-03-15T05:04:07.590Z,3.95
2023-03-15T05:07:34.371Z,4.61
2023-03-15T05:11:11.935Z,4.64
2023-03-15T05:14:46.326Z,4.51
2023-03-15T05:18:12.790Z,4.91
2023-03-15T05:21:41.238Z,5.25
2023-03-15T05:25:05.621Z,5.38
2023-03-15T05:28:37.218Z,5.21
2023-03-15T05:32:04.608Z,4.91
2023-03-15T05:35:39.318Z,5.15
2023-03-15T05:39:08.173Z,5.18
2023-03-15T05:42:34.138Z,5.61
2023-03-15T05:46:00.724Z,5.66
2023-03-15T05:49:27.353Z,5.92
2023-03-15T05:53:05.020Z,5.97
2023-03-15T05:56:34.514Z,6.01
2023-03-15T06:00:08.411Z,6.00
2023-03-15T06:03:19.879Z,5.97
2023-03-15T06:06:45.841Z,5.58
2023-03-15T06:10:05.903Z,5.96
2023-03-15T06:13:32.390Z,5.96
2023-03-15T06:16:58.746Z,6.31
2023-03-15T06:20:24.468Z,6.25
2023-03-15T06:23:50.692Z,5.95
2023-03-15T06:27:16.382Z,6.15
2023-03-15T06:30:42.446Z,5.86
2023-03-15T06:34:09.967Z,5.66
2023-03-15T06:37:37.109Z,5.95
2023-03-15T06:41:05.090Z,5.56
2023-03-15T06:44:30.802Z,5.64
2023-03-15T06:47:56.911Z,5.11
2023-03-15T06:51:24.273Z,4.77
2023-03-15T06:54:49.984Z,4.95
2023-03-15T06:58:15.940Z,5.54
2023-03-15T07:01:42.659Z,5.76
2023-03-15T07:05:09.507Z,5.85
2023-03-15T07:08:35.367Z,5.52
2023-03-15T07:12:01.423Z,6.04
2023-03-15T07:15:27.209Z,5.99
2023-03-15T07:18:55.519Z,5.56
2023-03-15T07:22:22.491Z,5.13
2023-03-15T07:25:55.096Z,5.17
2023-03-15T07:29:21.230Z,4.79
2023-03-15T07:32:47.911Z,5.21
2023-03-15T07:36:14.640Z,5.63
2023-03-15T07:39:41.356Z,5.31
2023-03-15T07:43:07.083Z,5.67
2023-03-15T07:46:32.815Z,4.98
2023-03-15T07:49:58.609Z,5.46
2023-03-15T07:53:24.391Z,5.01
2023-03-15T07:56:50.377Z,5.40
2023-03-15T08:00:17.184Z,5.78
2023-03-15T08:03:42.956Z,5.68
2023-03-15T08:07:09.026Z,6.23
2023-03-15T08:10:35.672Z,6.04
2023-03-15T08:14:01.508Z,6.68
2023-03-15T08:18:01.013Z,6.96
2023-03-15T08:21:26.806Z,7.54
2023-03-15T08:24:53.359Z,7.21
2023-03-15T08:28:19.410Z,7.31
2023-03-15T08:31:45.369Z,6.94
2023-03-15T08:35:15.464Z,6.30
2023-03-15T08:39:02.775Z,6.77
2023-03-15T08:42:28.528Z,6.95
2023-03-15T08:46:01.136Z,7.27
2023-03-15T08:49:27.458Z,6.39
2023-03-15T08:52:53.288Z,6.26
2023-03-15T08:56:22.287Z,7.11
2023-03-15T08:59:47.946Z,7.88
2023-03-15T09:03:16.087Z,7.50
2023-03-15T09:06:42.295Z,6.64
2023-03-15T09:09:48.277Z,7.48
2023-03-15T09:13:13.981Z,8.26
2023-03-15T09:16:31.034Z,7.61
2023-03-15T09:19:47.616Z,7.11
2023-03-15T09:23:00.865Z,7.01
2023-03-15T09:26:06.737Z,8.19
2023-03-15T09:29:23.256Z,8.46
2023-03-15T09:32:36.236Z,7.67
2023-03-15T09:35:57.166Z,6.95
2023-03-15T09:39:08.486Z,6.43
2023-03-15T09:42:32.601Z,6.41
2023-03-15T09:46:04.063Z,6.19
2023-03-15T09:49:15.370Z,6.64
2023-03-15T09:53:03.399Z,7.12
2023-03-15T09:56:19.921Z,6.69
2023-03-15T09:59:47.995Z,6.49
2023-03-15T10:03:18.343Z,7.07
2023-03-15T10:06:37.769Z,7.09
2023-03-15T10:09:58.489Z,6.68
2023-03-15T10:13:33.114Z,6.59
2023-03-15T10:16:50.113Z,6.61
2023-03-15T10:20:19.148Z,6.61
2023-03-15T10:23:42.869Z,6.41
2023-03-15T10:27:00.264Z,6.19
2023-03-15T10:30:14.392Z,5.84
2023-03-15T10:33:27.528Z,5.75
2023-03-15T10:36:38.953Z,6.68
2023-03-15T10:39:57.133Z,6.86
2023-03-15T10:43:23.737Z,6.25
2023-03-15T10:46:39.519Z,5.98
2023-03-15T10:50:05.737Z,5.81
2023-03-15T10:53:31.488Z,6.16
2023-03-15T10:56:43.291Z,6.27
2023-03-15T10:59:58.809Z,6.82
2023-03-15T11:03:08.201Z,7.15
2023-03-15T11:06:22.869Z,7.77
2023-03-15T11:09:52.721Z,8.34
2023-03-15T11:13:22.700Z,8.34
2023-03-15T11:16:34.650Z,8.47
2023-03-15T11:19:47.629Z,8.64
2023-03-15T11:22:55.300Z,8.60
2023-03-15T11:26:31.926Z,8.73
2023-03-15T11:29:52.974Z,8.65
2023-03-15T11:33:03.586Z,8.38
2023-03-15T11:36:31.969Z,8.02
2023-03-15T11:39:40.341Z,7.74
2023-03-15T11:42:50.593Z,7.46
2023-03-15T11:45:59.036Z,7.24
2023-03-15T11:49:32.594Z,6.95
2023-03-15T11:52:51.186Z,6.83
2023-03-15T11:56:24.865Z,7.08
2023-03-15T11:59:37.021Z,7.44
2023-03-15T12:02:54.713Z,7.66
2023-03-15T12:06:05.771Z,7.76
2023-03-15T12:09:49.117Z,8.16
2023-03-15T12:13:00.546Z,8.54
2023-03-15T12:16:09.260Z,8.71
2023-03-15T12:19:18.234Z,9.00
2023-03-15T12:22:34.369Z,9.03
2023-03-15T12:25:54.356Z,8.69
2023-03-15T12:29:29.587Z,8.27
2023-03-15T12:32:57.070Z,8.02
2023-03-15T12:36:06.160Z,8.10
2023-03-15T12:39:41.694Z,8.24
2023-03-15T12:43:04.523Z,8.36
2023-03-15T12:46:30.340Z,8.61
2023-03-15T12:49:46.810Z,8.87
2023-03-15T12:53:00.784Z,8.89
2023-03-15T12:56:34.361Z,8.42
2023-03-15T13:00:01.648Z,8.53
2023-03-15T13:03:11.980Z,8.89
2023-03-15T13:06:32.717Z,8.72
2023-03-15T13:10:11.487Z,8.50
2023-03-15T13:14:03.101Z,7.87
2023-03-15T13:17:19.759Z,7.46
2023-03-15T13:20:49.527Z,6.91
2023-03-15T13:24:21.774Z,6.56
2023-03-15T13:27:52.428Z,6.35
2023-03-15T13:31:14.554Z,6.63
2023-03-15T13:34:24.517Z,7.28
2023-03-15T13:37:41.989Z,6.84
2023-03-15T13:41:17.753Z,6.39
2023-03-15T13:44:43.673Z,6.14
2023-03-15T13:48:13.405Z,5.90
2023-03-15T13:51:40.234Z,5.80
2023-03-15T13:54:46.184Z,6.56
2023-03-15T13:58:12.536Z,6.66
2023-03-15T14:01:43.054Z,6.10
2023-03-15T14:05:11.440Z,6.58
2023-03-15T14:08:31.915Z,7.08
2023-03-15T14:12:06.062Z,6.62
2023-03-15T14:15:24.988Z,6.00
2023-03-15T14:18:55.181Z,5.78
2023-03-15T14:22:21.109Z,6.42
2023-03-15T14:25:37.471Z,6.78
2023-03-15T14:29:07.625Z,5.88
2023-03-15T14:32:34.111Z,5.45
2023-03-15T14:35:44.678Z,5.14
2023-03-15T14:38:55.349Z,5.28
2023-03-15T14:42:21.216Z,6.70
2023-03-15T14:45:29.481Z,7.11
2023-03-15T14:48:55.281Z,6.45
2023-03-15T14:52:21.145Z,5.97
2023-03-15T14:55:46.905Z,5.67
2023-03-15T14:59:14.247Z,5.41
2023-03-15T15:02:40.327Z,5.24
2023-03-15T15:06:07.929Z,5.05
2023-03-15T15:09:34.038Z,5.26
2023-03-15T15:12:39.725Z,6.27
2023-03-15T15:16:05.928Z,6.05
2023-03-15T15:19:31.834Z,5.74
2023-03-15T15:22:48.578Z,5.76
2023-03-15T15:26:18.405Z,5.96
2023-03-15T15:29:44.976Z,6.15
2023-03-15T15:33:11.642Z,6.42
2023-03-15T15:36:41.572Z,6.70
2023-03-15T15:40:00.676Z,6.90
2023-03-15T15:43:26.589Z,7.19
2023-03-15T15:46:42.423Z,7.39
2023-03-15T15:49:48.085Z,7.39
2023-03-15T15:53:16.760Z,7.32
2023-03-15T15:56:36.747Z,7.41
2023-03-15T15:59:42.338Z,7.49
2023-03-15T16:03:14.874Z,7.37
2023-03-15T16:06:31.388Z,7.10
2023-03-15T16:09:59.088Z,6.89
2023-03-15T16:13:14.726Z,6.85
2023-03-15T16:16:34.257Z,7.00
2023-03-15T16:19:58.580Z,7.11
2023-03-15T16:23:19.589Z,7.17
2023-03-15T16:26:37.668Z,7.21
2023-03-15T16:29:47.828Z,7.08
2023-03-15T16:33:16.449Z,6.72
2023-03-15T16:36:43.642Z,6.28
2023-03-15T16:40:14.745Z,5.82
2023-03-15T16:43:40.532Z,5.38
2023-03-15T16:46:55.993Z,5.03
2023-03-15T16:50:21.801Z,4.70
2023-03-15T16:53:47.454Z,4.40
2023-03-15T16:57:15.374Z,4.14
2023-03-15T17:00:44.361Z,3.89
2023-03-15T17:04:00.041Z,3.66
2023-03-15T17:07:28.911Z,3.42
2023-03-15T17:10:54.761Z,3.17
2023-03-15T17:14:23.699Z,2.94
2023-03-15T17:18:37.023Z,2.72
2023-03-15T17:21:39.796Z,2.47
2023-03-15T17:24:55.698Z,2.24
2023-03-15T17:28:22.829Z,2.04
2023-03-15T17:31:52.632Z,1.85
2023-03-15T17:35:19.823Z,1.65
2023-03-15T17:38:42.565Z,1.48
2023-03-15T17:42:10.976Z,1.33
2023-03-15T17:45:37.138Z,1.18
2023-03-15T17:49:04.858Z,1.03
2023-03-15T17:52:31.213Z,0.92
2023-03-15T17:55:55.504Z,0.82
2023-03-15T17:59:13.231Z,0.70
2023-03-15T18:02:46.210Z,0.79
2023-03-15T18:06:09.754Z,2.53
2023-03-15T18:09:29.864Z,4.13
2023-03-15T18:12:55.944Z,5.10
2023-03-15T18:16:21.783Z,5.79
2023-03-15T18:19:38.501Z,6.38
2023-03-15T18:22:54.249Z,6.91
2023-03-15T18:26:21.673Z,6.70
2023-03-15T18:29:40.233Z,5.25
2023-03-15T18:33:06.136Z,4.06
2023-03-15T18:36:52.032Z,3.24
2023-03-15T18:40:18.888Z,3.14
2023-03-15T18:43:49.920Z,2.54
2023-03-15T18:47:08.032Z,2.01
2023-03-15T18:50:21.463Z,1.63
2023-03-15T18:53:47.408Z,1.30
2023-03-15T18:57:02.964Z,1.04
2023-03-15T19:00:29.986Z,0.79
2023-03-15T19:03:55.589Z,0.63
2023-03-15T19:07:22.276Z,1.84
2023-03-15T19:10:49.467Z,3.38
2023-03-15T19:13:58.655Z,4.27
2023-03-15T19:17:23.677Z,4.97
2023-03-15T19:20:47.647Z,5.50
2023-03-15T19:24:15.377Z,5.97
2023-03-15T19:27:40.214Z,6.25
2023-03-15T19:31:00.028Z,5.11
2023-03-15T19:34:30.639Z,3.56
2023-03-15T19:37:57.187Z,2.49
2023-03-15T19:41:23.020Z,1.71
2023-03-15T19:44:49.478Z,1.07
2023-03-15T19:48:11.456Z,0.59
2023-03-15T19:51:20.048Z,0.19
2023-03-15T19:54:31.012Z,-0.17
2023-03-15T19:57:48.165Z,-0.48
2023-03-15T20:01:16.044Z,-0.76
2023-03-15T20:04:25.088Z,-0.99
2023-03-15T20:07:33.095Z,-1.20
2023-03-15T20:10:45.351Z,-1.39
2023-03-15T20:14:11.217Z,-1.57
2023-03-15T20:17:37.437Z,-1.63
2023-03-15T20:21:04.219Z,-0.24
2023-03-15T20:24:12.497Z,1.32
2023-03-15T20:27:39.641Z,2.51
2023-03-15T20:30:58.788Z,3.34
2023-03-15T20:34:11.263Z,3.98
2023-03-15T20:37:37.605Z,4.56
2023-03-15T20:40:54.638Z,5.01
2023-03-15T20:44:21.464Z,5.43
2023-03-15T20:47:41.932Z,5.73
2023-03-15T20:51:10.642Z,4.84
2023-03-15T20:54:37.966Z,3.33
2023-03-15T20:58:04.969Z,2.22
2023-03-15T21:01:32.058Z,1.40
2023-03-15T21:04:57.662Z,0.76
2023-03-15T21:08:17.899Z,0.23
2023-03-15T21:11:47.463Z,-0.22
2023-03-15T21:15:17.974Z,0.75
2023-03-15T21:18:53.798Z,2.21
2023-03-15T21:22:19.589Z,3.21
2023-03-15T21:25:45.313Z,3.91
2023-03-15T21:28:59.842Z,4.45
2023-03-15T21:32:08.424Z,4.87
2023-03-15T21:35:14.011Z,5.26
2023-03-15T21:38:32.312Z,5.62
2023-03-15T21:41:50.794Z,5.09
2023-03-15T21:44:56.345Z,3.75
2023-03-15T21:48:11.847Z,2.67
2023-03-15T21:51:22.460Z,1.90
2023-03-15T21:54:28.941Z,1.28
2023-03-15T21:57:34.805Z,0.74
2023-03-15T22:00:58.101Z,0.40
2023-03-15T22:04:06.787Z,1.50
2023-03-15T22:07:14.886Z,2.59
2023-03-15T22:10:40.750Z,3.48
2023-03-15T22:13:53.819Z,4.13
2023-03-15T22:17:13.426Z,4.59
2023-03-15T22:20:19.205Z,4.92
2023-03-15T22:23:24.848Z,5.13
2023-03-15T22:26:43.039Z,5.46
2023-03-15T22:29:53.311Z,5.73
2023-03-15T22:32:59.359Z,5.68
2023-03-15T22:36:17.144Z,4.31
2023-03-15T22:39:27.853Z,3.09
2023-03-15T22:42:46.908Z,2.18
2023-03-15T22:46:12.981Z,1.45
2023-03-15T22:49:18.485Z,1.28
2023-03-15T22:52:29.855Z,2.41
2023-03-15T22:55:37.790Z,3.43
2023-03-15T22:58:55.611Z,4.16
2023-03-15T23:02:12.077Z,4.65
2023-03-15T23:05:21.386Z,5.02
2023-03-15T23:08:26.822Z,5.36
2023-03-15T23:11:35.425Z,5.55
2023-03-15T23:14:52.142Z,4.29
2023-03-15T23:18:01.891Z,3.01
2023-03-15T23:21:11.204Z,2.14
2023-03-15T23:24:19.847Z,2.45
2023-03-15T23:27:26.193Z,3.41
2023-03-15T23:30:36.104Z,4.04
2023-03-15T23:33:47.366Z,4.52
2023-03-15T23:36:55.269Z,4.49
2023-03-15T23:40:09.495Z,3.50
2023-03-15T23:43:18.754Z,2.44
2023-03-15T23:46:36.179Z,1.63
2023-03-15T23:49:43.683Z,2.16
2023-03-15T23:52:52.542Z,3.41
2023-03-15T23:56:01.412Z,4.24
2023-03-15T23:59:14.604Z,4.73
